createdAt,value
2022-09-12T00:02:14.772Z,98609.59
2022-09-12T00:04:41.057Z,98613.31
2022-09-12T00:07:07.331Z,98606.44
2022-09-12T00:09:33.580Z,98603.81
2022-09-12T00:11:59.888Z,98604.94
2022-09-12T00:14:26.142Z,98603.13
2022-09-12T00:16:52.466Z,98601.97
2022-09-12T00:19:19.060Z,98601.25
2022-09-12T00:21:45.367Z,98596.13
2022-09-12T00:24:11.644Z,98601.25
2022-09-12T00:26:37.980Z,98602.31
2022-09-12T00:29:04.243Z,98597.59
2022-09-12T00:31:30.625Z,98597.63
2022-09-12T00:33:58.274Z,98599.50
2022-09-12T00:36:25.203Z,98596.22
2022-09-12T00:38:51.968Z,98597.69
2022-09-12T00:41:23.428Z,98597.69
2022-09-12T00:43:51.393Z,98594.09
2022-09-12T00:46:25.878Z,98599.59
2022-09-12T00:48:54.423Z,98591.59
2022-09-12T00:51:20.933Z,98597.69
2022-09-12T00:53:48.899Z,98596.59
2022-09-12T00:56:16.208Z,98601.72
2022-09-12T00:58:47.053Z,98591.19
2022-09-12T01:01:13.489Z,98591.94
2022-09-12T01:03:40.069Z,98588.97
2022-09-12T01:06:16.017Z,98592.56
2022-09-12T01:08:42.974Z,98599.50
2022-09-12T01:11:09.830Z,98595.06
2022-09-12T01:13:36.494Z,98594.72
2022-09-12T01:16:03.994Z,98591.75
2022-09-12T01:18:35.184Z,98596.59
2022-09-12T01:21:07.088Z,98596.13
2022-09-12T01:23:45.912Z,98589.19
2022-09-12T01:26:21.154Z,98593.69
2022-09-12T01:29:06.284Z,98588.13
2022-09-12T01:32:08.178Z,98585.97
2022-09-12T01:34:44.224Z,98583.13
2022-09-12T01:37:29.098Z,98581.53
2022-09-12T01:40:33.895Z,98581.94
2022-09-12T01:43:18.315Z,98580.53
2022-09-12T01:45:47.520Z,98588.56
2022-09-12T01:48:20.287Z,98589.28
2022-09-12T01:50:50.645Z,98592.50
2022-09-12T01:53:20.290Z,98582.94
2022-09-12T01:55:50.076Z,98578.97
2022-09-12T01:58:25.487Z,98584.38
2022-09-12T02:00:59.944Z,98571.97
2022-09-12T02:03:41.424Z,98579.28
2022-09-12T02:06:10.248Z,98575.28
2022-09-12T02:08:47.866Z,98573.13
2022-09-12T02:11:14.300Z,98575.34
2022-09-12T02:13:49.389Z,98566.59
2022-09-12T02:16:19.051Z,98562.22
2022-09-12T02:18:47.176Z,98560.06
2022-09-12T02:21:13.662Z,98557.09
2022-09-12T02:23:43.419Z,98553.81
2022-09-12T02:26:14.425Z,98553.41
2022-09-12T02:28:42.202Z,98549.41
2022-09-12T02:31:08.504Z,98551.19
2022-09-12T02:33:34.993Z,98550.09
2022-09-12T02:36:24.688Z,98544.25
2022-09-12T02:38:51.007Z,98548.63
2022-09-12T02:41:19.351Z,98542.50
2022-09-12T02:43:46.415Z,98541.78
2022-09-12T02:46:23.530Z,98541.72
2022-09-12T02:48:49.839Z,98544.66
2022-09-12T02:51:20.291Z,98543.59
2022-09-12T02:53:47.843Z,98542.91
2022-09-12T02:56:27.885Z,98543.97
2022-09-12T02:58:56.088Z,98550.94
2022-09-12T03:01:41.551Z,98541.09
2022-09-12T03:04:22.969Z,98550.19
2022-09-12T03:06:55.376Z,98543.97
2022-09-12T03:09:37.675Z,98545.38
2022-09-12T03:12:09.570Z,98550.09
2022-09-12T03:14:43.443Z,98546.13
2022-09-12T03:17:24.091Z,98543.56
2022-09-12T03:20:10.693Z,98553.41
2022-09-12T03:22:49.279Z,98547.19
2022-09-12T03:25:20.393Z,98553.78
2022-09-12T03:27:52.220Z,98553.06
2022-09-12T03:30:18.742Z,98547.09
2022-09-12T03:32:46.130Z,98555.88
2022-09-12T03:35:12.971Z,98543.50
2022-09-12T03:37:39.382Z,98544.91
2022-09-12T03:40:06.320Z,98549.56
2022-09-12T03:42:32.890Z,98553.91
2022-09-12T03:44:59.261Z,98542.44
2022-09-12T03:47:25.591Z,98551.56
2022-09-12T03:49:52.579Z,98546.75
2022-09-12T03:52:19.190Z,98551.47
2022-09-12T03:54:45.518Z,98555.13
2022-09-12T03:57:11.876Z,98556.19
2022-09-12T03:59:38.285Z,98558.75
2022-09-12T04:02:05.045Z,98564.19
2022-09-12T04:04:31.612Z,98559.09
2022-09-12T04:06:57.955Z,98559.16
2022-09-12T04:09:24.462Z,98565.41
2022-09-12T04:11:50.756Z,98563.63
2022-09-12T04:14:17.120Z,98563.59
2022-09-12T04:16:43.465Z,98562.81
2022-09-12T04:19:11.524Z,98565.34
2022-09-12T04:21:40.151Z,98560.91
2022-09-12T04:24:06.539Z,98562.38
2022-09-12T04:26:33.047Z,98562.38
2022-09-12T04:28:59.374Z,98551.41
2022-09-12T04:31:26.193Z,98557.66
2022-09-12T04:33:56.131Z,98556.22
2022-09-12T04:36:22.835Z,98562.03
2022-09-12T04:38:49.131Z,98563.81
2022-09-12T04:41:15.551Z,98560.91
2022-09-12T04:43:42.056Z,98560.56
2022-09-12T04:46:09.963Z,98572.19
2022-09-12T04:48:36.843Z,98570.38
2022-09-12T04:51:07.044Z,98570.38
2022-09-12T04:53:33.341Z,98568.94
2022-09-12T04:56:03.903Z,98570.69
2022-09-12T04:58:31.179Z,98571.09
2022-09-12T05:01:03.822Z,98575.81
2022-09-12T05:03:30.122Z,98578.03
2022-09-12T05:05:56.660Z,98576.56
2022-09-12T05:08:22.954Z,98574.34
2022-09-12T05:10:49.391Z,98581.66
2022-09-12T05:13:15.692Z,98577.22
2022-09-12T05:15:41.985Z,98582.31
2022-09-12T05:18:08.262Z,98582.31
2022-09-12T05:20:34.521Z,98576.50
2022-09-12T05:23:01.703Z,98583.81
2022-09-12T05:25:27.999Z,98586.72
2022-09-12T05:27:54.272Z,98580.91
2022-09-12T05:30:20.536Z,98586.00
2022-09-12T05:32:46.812Z,98592.97
2022-09-12T05:35:13.150Z,98587.50
2022-09-12T05:37:40.103Z,98591.22
2022-09-12T05:40:08.514Z,98597.31
2022-09-12T05:42:34.969Z,98599.97
2022-09-12T05:45:01.262Z,98599.22
2022-09-12T05:47:27.544Z,98597.31
2022-09-12T05:49:54.287Z,98610.06
2022-09-12T05:52:20.897Z,98609.38
2022-09-12T05:54:48.186Z,98606.78
2022-09-12T05:57:14.457Z,98606.38
2022-09-12T05:59:40.788Z,98604.16
2022-09-12T06:02:09.272Z,98611.16
2022-09-12T06:04:35.558Z,98603.50
2022-09-12T06:07:01.836Z,98608.97
2022-09-12T06:09:28.122Z,98609.38
2022-09-12T06:11:54.405Z,98614.22
2022-09-12T06:14:20.705Z,98606.97
2022-09-12T06:16:47.564Z,98593.78
2022-09-12T06:19:13.892Z,98610.50
2022-09-12T06:21:40.201Z,98600.69
2022-09-12T06:24:07.513Z,98611.66
2022-09-12T06:26:34.256Z,98607.97
2022-09-12T06:29:01.049Z,98618.34
2022-09-12T06:31:31.860Z,98615.47
2022-09-12T06:33:59.849Z,98613.19
2022-09-12T06:36:27.533Z,98608.91
2022-09-12T06:38:54.710Z,98612.50
2022-09-12T06:41:22.073Z,98612.41
2022-09-12T06:43:48.400Z,98620.41
2022-09-12T06:46:14.753Z,98609.53
2022-09-12T06:48:42.213Z,98615.84
2022-09-12T06:51:15.705Z,98621.38
2022-09-12T06:53:43.080Z,98616.53
2022-09-12T06:56:10.857Z,98623.13
2022-09-12T06:58:37.534Z,98623.16
2022-09-12T07:01:10.625Z,98628.69
2022-09-12T07:03:38.242Z,98630.59
2022-09-12T07:06:06.421Z,98627.53
2022-09-12T07:08:34.167Z,98639.56
2022-09-12T07:11:01.357Z,98627.97
2022-09-12T07:13:27.674Z,98637.59
2022-09-12T07:15:54.051Z,98641.97
2022-09-12T07:18:21.079Z,98631.03
2022-09-12T07:20:47.371Z,98639.88
2022-09-12T07:23:13.692Z,98646.00
2022-09-12T07:25:40.051Z,98648.56
2022-09-12T07:28:06.412Z,98644.84
2022-09-12T07:30:32.752Z,98653.94
2022-09-12T07:32:59.064Z,98651.78
2022-09-12T07:35:25.810Z,98655.94
2022-09-12T07:37:52.075Z,98653.81
2022-09-12T07:40:18.391Z,98655.44
2022-09-12T07:42:44.741Z,98653.81
2022-09-12T07:45:11.202Z,98662.56
2022-09-12T07:47:37.654Z,98655.97
2022-09-12T07:50:04.072Z,98657.09
2022-09-12T07:52:31.028Z,98656.84
2022-09-12T07:54:57.360Z,98660.94
2022-09-12T07:57:23.670Z,98658.25
2022-09-12T07:59:53.008Z,98657.25
2022-09-12T08:02:20.122Z,98661.94
2022-09-12T08:04:49.751Z,98658.69
2022-09-12T08:07:16.331Z,98658.81
2022-09-12T08:09:42.606Z,98656.03
2022-09-12T08:12:08.880Z,98657.22
2022-09-12T08:14:35.151Z,98653.09
2022-09-12T08:17:01.422Z,98651.44
2022-09-12T08:19:27.692Z,98651.13
2022-09-12T08:21:53.996Z,98647.97
2022-09-12T08:24:20.316Z,98654.56
2022-09-12T08:26:46.798Z,98651.03
2022-09-12T08:29:13.192Z,98654.47
2022-09-12T08:31:41.384Z,98655.66
2022-09-12T08:34:08.117Z,98650.88
2022-09-12T08:36:35.065Z,98650.91
2022-09-12T08:39:03.380Z,98654.94
2022-09-12T08:41:35.229Z,98651.53
2022-09-12T08:44:07.879Z,98642.91
2022-09-12T08:46:34.234Z,98643.59
2022-09-12T08:49:02.196Z,98642.06
2022-09-12T08:51:29.349Z,98645.00
2022-09-12T08:53:56.415Z,98646.13
2022-09-12T08:56:23.506Z,98647.94
2022-09-12T08:58:50.008Z,98639.50
2022-09-12T09:01:53.921Z,98650.25
2022-09-12T09:04:37.402Z,98637.38
2022-09-12T09:07:25.877Z,98629.44
2022-09-12T09:09:55.068Z,98632.47
2022-09-12T09:12:21.410Z,98621.91
2022-09-12T09:15:00.871Z,98635.84
2022-09-12T09:17:33.523Z,98631.81
2022-09-12T09:20:12.366Z,98636.16
2022-09-12T09:22:57.149Z,98639.09
2022-09-12T09:25:23.441Z,98639.06
2022-09-12T09:27:57.196Z,98641.25
2022-09-12T09:30:23.780Z,98640.50
2022-09-12T09:32:55.403Z,98635.81
2022-09-12T09:35:36.491Z,98631.84
2022-09-12T09:38:15.155Z,98631.94
2022-09-12T09:40:47.771Z,98625.00
2022-09-12T09:43:19.759Z,98623.06
2022-09-12T09:45:47.925Z,98623.91
2022-09-12T09:48:31.266Z,98623.97
2022-09-12T09:50:59.067Z,98619.13
2022-09-12T09:53:32.245Z,98617.38
2022-09-12T09:56:00.195Z,98620.97
2022-09-12T09:58:30.150Z,98614.13
2022-09-12T10:01:01.033Z,98616.72
2022-09-12T10:03:31.871Z,98616.69
2022-09-12T10:06:17.122Z,98622.88
2022-09-12T10:08:43.459Z,98620.69
2022-09-12T10:11:15.841Z,98626.59
2022-09-12T10:13:53.339Z,98621.44
2022-09-12T10:16:22.075Z,98621.03
2022-09-12T10:18:49.330Z,98624.75
2022-09-12T10:21:17.758Z,98621.06
2022-09-12T10:23:44.752Z,98615.50
2022-09-12T10:26:13.120Z,98614.88
2022-09-12T10:28:53.535Z,98620.63
2022-09-12T10:31:29.050Z,98610.97
2022-09-12T10:33:57.327Z,98617.03
2022-09-12T10:36:24.283Z,98618.53
2022-09-12T10:38:58.180Z,98621.03
2022-09-12T10:41:24.878Z,98616.72
2022-09-12T10:43:51.257Z,98611.56
2022-09-12T10:46:17.567Z,98615.63
2022-09-12T10:48:45.257Z,98606.41
2022-09-12T10:51:23.707Z,98609.72
2022-09-12T10:53:51.179Z,98610.41
2022-09-12T10:56:22.527Z,98610.41
2022-09-12T10:58:51.969Z,98610.78
2022-09-12T11:01:34.017Z,98608.97
2022-09-12T11:04:09.839Z,98602.00
2022-09-12T11:06:56.456Z,98605.63
2022-09-12T11:09:26.190Z,98610.69
2022-09-12T11:11:58.874Z,98601.94
2022-09-12T11:14:37.402Z,98594.56
2022-09-12T11:17:03.738Z,98596.78
2022-09-12T11:19:43.856Z,98597.47
2022-09-12T11:22:28.660Z,98599.63
2022-09-12T11:25:06.023Z,98597.59
2022-09-12T11:27:32.249Z,98602.84
2022-09-12T11:30:03.168Z,98607.66
2022-09-12T11:32:29.393Z,98600.91
2022-09-12T11:35:18.490Z,98591.69
2022-09-12T11:37:47.718Z,98594.34
2022-09-12T11:40:24.020Z,98592.34
2022-09-12T11:42:53.384Z,98593.22
2022-09-12T11:45:21.983Z,98589.81
2022-09-12T11:47:52.747Z,98594.56
2022-09-12T11:50:26.038Z,98597.03
2022-09-12T11:52:55.049Z,98591.81
2022-09-12T11:55:29.747Z,98596.06
2022-09-12T11:57:57.147Z,98587.72
2022-09-12T12:00:27.599Z,98587.81
2022-09-12T12:02:58.758Z,98589.41
2022-09-12T12:05:33.930Z,98590.59
2022-09-12T12:08:01.613Z,98592.84
2022-09-12T12:10:38.846Z,98586.25
2022-09-12T12:13:13.271Z,98584.41
2022-09-12T12:15:40.769Z,98588.97
2022-09-12T12:18:22.441Z,98590.78
2022-09-12T12:20:50.006Z,98580.16
2022-09-12T12:23:23.644Z,98577.34
2022-09-12T12:25:54.327Z,98570.13
2022-09-12T12:28:40.009Z,98579.34
2022-09-12T12:31:06.345Z,98575.72
2022-09-12T12:33:32.691Z,98566.19
2022-09-12T12:35:59.486Z,98563.09
2022-09-12T12:38:32.753Z,98564.88
2022-09-12T12:41:17.289Z,98562.31
2022-09-12T12:43:47.760Z,98564.44
2022-09-12T12:46:17.715Z,98563.00
2022-09-12T12:48:52.635Z,98559.41
2022-09-12T12:51:36.079Z,98561.06
2022-09-12T12:54:03.676Z,98564.75
2022-09-12T12:56:29.908Z,98554.06
2022-09-12T12:59:00.546Z,98557.78
2022-09-12T13:01:27.511Z,98554.38
2022-09-12T13:04:00.961Z,98545.50
2022-09-12T13:06:40.674Z,98551.88
2022-09-12T13:09:09.310Z,98540.75
2022-09-12T13:11:37.288Z,98532.09
2022-09-12T13:14:04.795Z,98535.44
2022-09-12T13:16:31.788Z,98532.53
2022-09-12T13:19:03.057Z,98529.59
2022-09-12T13:21:29.327Z,98526.97
2022-09-12T13:24:03.904Z,98524.81
2022-09-12T13:26:40.168Z,98518.47
2022-09-12T13:29:09.590Z,98522.81
2022-09-12T13:31:36.328Z,98519.19
2022-09-12T13:34:05.279Z,98511.00
2022-09-12T13:36:31.543Z,98510.06
2022-09-12T13:39:13.232Z,98510.78
2022-09-12T13:41:53.228Z,98513.72
2022-09-12T13:44:20.669Z,98506.50
2022-09-12T13:46:47.752Z,98500.97
2022-09-12T13:49:22.314Z,98500.69
2022-09-12T13:51:56.725Z,98499.31
2022-09-12T13:54:24.705Z,98504.09
2022-09-12T13:56:51.056Z,98509.50
2022-09-12T13:59:17.343Z,98507.88
2022-09-12T14:01:44.979Z,98509.00
2022-09-12T14:04:34.097Z,98509.03
2022-09-12T14:07:02.218Z,98506.03
2022-09-12T14:09:31.093Z,98508.78
2022-09-12T14:11:58.118Z,98504.31
2022-09-12T14:14:31.418Z,98503.94
2022-09-12T14:16:58.542Z,98501.16
2022-09-12T14:19:26.004Z,98497.00
2022-09-12T14:21:53.541Z,98501.94
2022-09-12T14:24:23.317Z,98494.19
2022-09-12T14:26:52.851Z,98492.38
2022-09-12T14:29:19.741Z,98486.59
2022-09-12T14:31:46.058Z,98483.69
2022-09-12T14:34:19.196Z,98494.00
2022-09-12T14:36:47.773Z,98486.22
2022-09-12T14:39:26.567Z,98492.47
2022-09-12T14:42:01.562Z,98480.38
2022-09-12T14:44:28.410Z,98480.38
2022-09-12T14:46:54.755Z,98477.88
2022-09-12T14:49:31.303Z,98484.81
2022-09-12T14:51:59.966Z,98484.84
2022-09-12T14:54:29.218Z,98482.91
2022-09-12T14:57:22.500Z,98485.53
2022-09-12T14:59:48.790Z,98479.59
2022-09-12T15:02:15.021Z,98478.22
2022-09-12T15:04:42.110Z,98469.81
2022-09-12T15:07:15.536Z,98467.91
2022-09-12T15:09:47.079Z,98464.66
2022-09-12T15:12:13.673Z,98458.06
2022-09-12T15:14:39.982Z,98462.00
2022-09-12T15:17:06.402Z,98461.19
2022-09-12T15:19:32.677Z,98456.13
2022-09-12T15:21:59.008Z,98457.50
2022-09-12T15:24:25.636Z,98455.97
2022-09-12T15:26:52.728Z,98454.19
2022-09-12T15:29:19.251Z,98456.03
2022-09-12T15:31:47.107Z,98457.16
2022-09-12T15:34:13.485Z,98464.47
2022-09-12T15:36:39.739Z,98459.44
2022-09-12T15:39:06.007Z,98464.13
2022-09-12T15:41:37.001Z,98464.13
2022-09-12T15:44:08.155Z,98452.47
2022-09-12T15:46:34.509Z,98457.44
2022-09-12T15:49:00.864Z,98454.94
2022-09-12T15:51:27.687Z,98453.84
2022-09-12T15:53:53.987Z,98453.84
2022-09-12T15:56:21.135Z,98451.88
2022-09-12T15:58:58.242Z,98445.66
2022-09-12T16:01:25.578Z,98452.25
2022-09-12T16:03:52.029Z,98445.56
2022-09-12T16:06:18.344Z,98444.06
2022-09-12T16:08:44.805Z,98449.03
2022-09-12T16:11:13.768Z,98448.66
2022-09-12T16:13:40.078Z,98448.41
2022-09-12T16:16:07.645Z,98442.59
2022-09-12T16:18:34.160Z,98445.53
2022-09-12T16:21:00.480Z,98444.53
2022-09-12T16:23:26.789Z,98440.50
2022-09-12T16:25:57.016Z,98436.06
2022-09-12T16:28:23.425Z,98430.94
2022-09-12T16:30:56.723Z,98429.50
2022-09-12T16:33:23.391Z,98427.63
2022-09-12T16:35:51.196Z,98421.53
2022-09-12T16:38:17.800Z,98424.47
2022-09-12T16:40:44.091Z,98427.50
2022-09-12T16:43:10.368Z,98423.44
2022-09-12T16:45:36.629Z,98420.19
2022-09-12T16:48:02.910Z,98424.59
2022-09-12T16:50:29.238Z,98426.13
2022-09-12T16:52:55.550Z,98419.19
2022-09-12T16:55:22.351Z,98419.66
2022-09-12T16:57:49.404Z,98421.47
2022-09-12T17:00:15.800Z,98414.19
2022-09-12T17:02:42.139Z,98419.72
2022-09-12T17:05:08.600Z,98422.69
2022-09-12T17:07:35.206Z,98423.41
2022-09-12T17:10:01.463Z,98419.38
2022-09-12T17:12:27.741Z,98419.38
2022-09-12T17:14:54.365Z,98416.44
2022-09-12T17:17:20.643Z,98408.75
2022-09-12T17:19:47.180Z,98407.69
2022-09-12T17:22:13.463Z,98405.84
2022-09-12T17:24:40.475Z,98404.78
2022-09-12T17:27:06.788Z,98401.16
2022-09-12T17:29:35.056Z,98405.97
2022-09-12T17:32:01.542Z,98393.56
2022-09-12T17:34:27.960Z,98404.97
2022-09-12T17:36:54.239Z,98397.59
2022-09-12T17:39:20.516Z,98400.97
2022-09-12T17:41:47.099Z,98405.03
2022-09-12T17:44:14.889Z,98409.09
2022-09-12T17:46:41.576Z,98401.75
2022-09-12T17:49:10.481Z,98396.25
2022-09-12T17:51:36.861Z,98402.53
2022-09-12T17:54:05.457Z,98395.94
2022-09-12T17:56:32.982Z,98402.16
2022-09-12T17:58:59.568Z,98400.72
2022-09-12T18:01:44.502Z,98397.78
2022-09-12T18:04:10.935Z,98402.53
2022-09-12T18:06:37.773Z,98400.72
2022-09-12T18:09:06.365Z,98409.16
2022-09-12T18:11:32.783Z,98408.44
2022-09-12T18:13:59.629Z,98405.13
2022-09-12T18:16:26.429Z,98406.66
2022-09-12T18:18:52.722Z,98402.66
2022-09-12T18:21:19.776Z,98402.66
2022-09-12T18:23:46.524Z,98402.28
2022-09-12T18:26:13.565Z,98402.69
2022-09-12T18:28:41.634Z,98400.09
2022-09-12T18:31:15.327Z,98408.94
2022-09-12T18:33:41.976Z,98402.34
2022-09-12T18:36:09.791Z,98410.38
2022-09-12T18:38:36.285Z,98409.34
2022-09-12T18:41:22.847Z,98414.78
2022-09-12T18:43:49.523Z,98416.69
2022-09-12T18:46:17.448Z,98414.84
2022-09-12T18:48:45.046Z,98409.31
2022-09-12T18:51:12.662Z,98414.84
2022-09-12T18:53:38.975Z,98422.16
2022-09-12T18:56:12.046Z,98419.59
2022-09-12T18:58:40.461Z,98418.84
2022-09-12T19:01:14.195Z,98423.97
2022-09-12T19:03:40.906Z,98410.47
2022-09-12T19:06:08.529Z,98412.63
2022-09-12T19:08:36.378Z,98411.50
2022-09-12T19:11:03.396Z,98408.97
2022-09-12T19:13:29.859Z,98411.88
2022-09-12T19:15:56.270Z,98419.91
2022-09-12T19:18:22.626Z,98410.78
2022-09-12T19:20:52.636Z,98417.34
2022-09-12T19:23:19.170Z,98411.84
2022-09-12T19:25:54.602Z,98407.09
2022-09-12T19:28:20.910Z,98410.34
2022-09-12T19:30:47.656Z,98404.47
2022-09-12T19:33:14.016Z,98407.03
2022-09-12T19:35:40.278Z,98410.69
2022-09-12T19:38:06.555Z,98407.38
2022-09-12T19:40:32.827Z,98406.63
2022-09-12T19:42:59.137Z,98405.50
2022-09-12T19:45:25.417Z,98401.47
2022-09-12T19:47:51.708Z,98399.28
2022-09-12T19:50:18.111Z,98402.88
2022-09-12T19:52:44.396Z,98399.94
2022-09-12T19:55:10.736Z,98394.19
2022-09-12T19:57:37.063Z,98390.13
2022-09-12T20:00:04.733Z,98386.06
2022-09-12T20:02:31.112Z,98387.16
2022-09-12T20:04:57.397Z,98380.56
2022-09-12T20:07:23.722Z,98381.94
2022-09-12T20:09:50.016Z,98388.13
2022-09-12T20:12:16.320Z,98391.41
2022-09-12T20:14:42.650Z,98391.03
2022-09-12T20:17:09.147Z,98382.22
2022-09-12T20:19:35.461Z,98379.66
2022-09-12T20:22:01.758Z,98381.41
2022-09-12T20:24:28.014Z,98383.69
2022-09-12T20:26:57.417Z,98381.03
2022-09-12T20:29:26.735Z,98380.97
2022-09-12T20:31:53.020Z,98383.44
2022-09-12T20:34:20.452Z,98383.09
2022-09-12T20:36:46.985Z,98376.50
2022-09-12T20:39:20.783Z,98376.19
2022-09-12T20:41:47.106Z,98370.59
2022-09-12T20:44:13.594Z,98372.41
2022-09-12T20:46:40.207Z,98368.75
2022-09-12T20:49:08.131Z,98368.84
2022-09-12T20:51:35.142Z,98361.03
2022-09-12T20:54:03.502Z,98368.25
2022-09-12T20:56:31.721Z,98360.13
2022-09-12T20:58:58.326Z,98353.13
2022-09-12T21:01:25.875Z,98357.16
2022-09-12T21:03:52.448Z,98355.31
2022-09-12T21:06:19.252Z,98345.47
2022-09-12T21:08:46.260Z,98342.16
2022-09-12T21:11:13.067Z,98343.91
2022-09-12T21:13:39.528Z,98347.47
2022-09-12T21:16:13.338Z,98344.56
2022-09-12T21:18:41.006Z,98347.41
2022-09-12T21:21:07.736Z,98341.63
2022-09-12T21:23:34.717Z,98348.63
2022-09-12T21:26:01.392Z,98346.06
2022-09-12T21:28:27.748Z,98344.09
2022-09-12T21:30:54.058Z,98344.38
2022-09-12T21:33:21.029Z,98347.03
2022-09-12T21:35:47.803Z,98346.72
2022-09-12T21:38:14.686Z,98344.06
2022-09-12T21:40:41.010Z,98337.53
2022-09-12T21:43:12.337Z,98342.72
2022-09-12T21:45:39.221Z,98344.66
2022-09-12T21:48:05.743Z,98339.09
2022-09-12T21:50:32.202Z,98341.00
2022-09-12T21:52:58.460Z,98338.34
2022-09-12T21:55:27.206Z,98337.56
2022-09-12T21:57:53.917Z,98331.44
2022-09-12T22:00:20.289Z,98328.41
2022-09-12T22:02:47.329Z,98325.81
2022-09-12T22:05:13.916Z,98326.34
2022-09-12T22:07:40.542Z,98326.72
2022-09-12T22:10:07.560Z,98317.66
2022-09-12T22:12:34.280Z,98318.41
2022-09-12T22:15:08.940Z,98313.72
2022-09-12T22:17:43.958Z,98306.84
2022-09-12T22:20:10.513Z,98312.91
2022-09-12T22:22:55.252Z,98306.84
2022-09-12T22:25:24.544Z,98301.69
2022-09-12T22:27:51.570Z,98305.09
2022-09-12T22:30:18.408Z,98310.53
2022-09-12T22:32:44.677Z,98297.44
2022-09-12T22:35:10.973Z,98294.22
2022-09-12T22:37:37.313Z,98292.44
2022-09-12T22:40:03.714Z,98294.56
2022-09-12T22:42:31.190Z,98279.91
2022-09-12T22:44:57.449Z,98287.13
2022-09-12T22:47:23.722Z,98289.31
2022-09-12T22:49:50.033Z,98288.59
2022-09-12T22:52:16.353Z,98286.00
2022-09-12T22:54:43.303Z,98287.16
2022-09-12T22:57:10.389Z,98269.50
2022-09-12T22:59:37.506Z,98266.56
2022-09-12T23:02:05.012Z,98260.31
2022-09-12T23:04:31.573Z,98259.19
2022-09-12T23:06:57.889Z,98261.38
2022-09-12T23:09:24.201Z,98258.91
2022-09-12T23:11:51.840Z,98255.13
2022-09-12T23:14:18.419Z,98251.03
2022-09-12T23:16:44.674Z,98242.97
2022-09-12T23:19:11.126Z,98247.31
2022-09-12T23:21:37.477Z,98245.94
2022-09-12T23:24:04.221Z,98239.34
2022-09-12T23:26:30.521Z,98243.72
2022-09-12T23:28:58.067Z,98241.22
2022-09-12T23:31:25.462Z,98238.09
2022-09-12T23:33:55.704Z,98235.25
2022-09-12T23:36:22.501Z,98236.38
2022-09-12T23:38:50.978Z,98239.25
2022-09-12T23:41:18.642Z,98233.44
2022-09-12T23:43:45.634Z,98230.09
2022-09-12T23:46:15.377Z,98231.22
2022-09-12T23:48:42.208Z,98226.47
2022-09-12T23:51:08.541Z,98231.94
2022-09-12T23:53:35.766Z,98222.03
2022-09-12T23:56:02.367Z,98222.06
2022-09-12T23:58:30.153Z,98218.75
